createdAt,value
2023-05-11T00:01:09.496Z,3.05
2023-05-11T00:03:40.075Z,3.00
2023-05-11T00:06:10.463Z,2.90
2023-05-11T00:08:42.899Z,2.92
2023-05-11T00:11:12.874Z,3.00
2023-05-11T00:13:42.836Z,2.70
2023-05-11T00:16:13.413Z,3.15
2023-05-11T00:18:44.280Z,2.90
2023-05-11T00:21:14.701Z,2.60
2023-05-11T00:23:47.392Z,2.97
2023-05-11T00:26:17.452Z,2.90
2023-05-11T00:28:47.943Z,2.90
2023-05-11T00:31:18.561Z,2.72
2023-05-11T00:33:48.573Z,2.63
2023-05-11T00:36:18.744Z,2.60
2023-05-11T00:38:51.102Z,2.63
2023-05-11T00:41:22.029Z,2.90
2023-05-11T00:43:52.489Z,2.40
2023-05-11T00:46:23.468Z,2.55
2023-05-11T00:48:54.081Z,2.80
2023-05-11T00:51:25.496Z,2.65
2023-05-11T00:53:58.027Z,2.58
2023-05-11T00:56:28.914Z,2.58
2023-05-11T00:58:59.972Z,2.63
2023-05-11T01:01:31.381Z,2.60
2023-05-11T01:04:01.481Z,2.58
2023-05-11T01:06:47.564Z,2.42
2023-05-11T01:09:41.136Z,2.55
2023-05-11T01:12:23.655Z,2.30
2023-05-11T01:15:08.936Z,2.50
2023-05-11T01:17:51.372Z,2.28
2023-05-11T01:20:27.635Z,2.20
2023-05-11T01:23:44.893Z,2.42
2023-05-11T01:26:41.488Z,2.15
2023-05-11T01:29:43.747Z,2.28
2023-05-11T01:32:22.378Z,2.85
2023-05-11T01:35:03.580Z,2.55
2023-05-11T01:37:36.621Z,2.60
2023-05-11T01:40:15.916Z,2.35
2023-05-11T01:42:52.595Z,2.53
2023-05-11T01:45:27.503Z,2.47
2023-05-11T01:48:03.365Z,2.63
2023-05-11T01:50:37.137Z,2.45
2023-05-11T01:53:08.912Z,2.30
2023-05-11T01:55:42.559Z,2.30
2023-05-11T01:58:17.073Z,2.35
2023-05-11T02:00:48.783Z,2.45
2023-05-11T02:03:23.986Z,2.13
2023-05-11T02:05:57.375Z,2.17
2023-05-11T02:08:30.066Z,2.28
2023-05-11T02:11:01.416Z,2.25
2023-05-11T02:13:33.974Z,2.20
2023-05-11T02:16:06.364Z,2.47
2023-05-11T02:18:42.180Z,2.50
2023-05-11T02:21:15.284Z,2.28
2023-05-11T02:23:48.495Z,2.40
2023-05-11T02:26:20.375Z,2.50
2023-05-11T02:28:50.452Z,2.20
2023-05-11T02:31:26.599Z,2.28
2023-05-11T02:34:06.833Z,2.40
2023-05-11T02:36:41.215Z,2.28
2023-05-11T02:39:15.971Z,2.20
2023-05-11T02:41:49.031Z,2.50
2023-05-11T02:44:22.237Z,2.22
2023-05-11T02:46:57.320Z,2.40
2023-05-11T02:49:33.615Z,2.47
2023-05-11T02:52:05.951Z,2.25
2023-05-11T02:54:37.449Z,2.33
2023-05-11T02:57:08.271Z,2.33
2023-05-11T02:59:39.333Z,2.40
2023-05-11T03:02:10.568Z,2.30
2023-05-11T03:04:42.620Z,2.53
2023-05-11T03:07:13.071Z,2.45
2023-05-11T03:09:43.640Z,2.08
2023-05-11T03:12:14.124Z,2.35
2023-05-11T03:14:45.947Z,2.38
2023-05-11T03:17:18.369Z,2.40
2023-05-11T03:19:51.752Z,2.60
2023-05-11T03:22:25.415Z,2.40
2023-05-11T03:24:56.588Z,2.28
2023-05-11T03:27:34.897Z,2.25
2023-05-11T03:30:10.221Z,2.10
2023-05-11T03:32:40.783Z,2.40
2023-05-11T03:35:13.056Z,2.40
2023-05-11T03:37:44.806Z,2.38
2023-05-11T03:40:19.346Z,2.45
2023-05-11T03:42:51.348Z,2.45
2023-05-11T03:45:23.880Z,2.35
2023-05-11T03:47:56.664Z,2.47
2023-05-11T03:50:31.130Z,2.33
2023-05-11T03:53:02.507Z,2.45
2023-05-11T03:55:32.758Z,2.55
2023-05-11T03:58:04.456Z,2.30
2023-05-11T04:00:35.000Z,2.35
2023-05-11T04:03:08.282Z,2.63
2023-05-11T04:05:40.890Z,2.50
2023-05-11T04:08:13.433Z,2.38
2023-05-11T04:10:43.765Z,2.95
2023-05-11T04:13:13.493Z,2.58
2023-05-11T04:15:43.983Z,2.63
2023-05-11T04:18:14.309Z,2.53
2023-05-11T04:20:46.604Z,3.05
2023-05-11T04:23:18.336Z,2.80
2023-05-11T04:25:49.329Z,2.97
2023-05-11T04:28:20.243Z,2.70
2023-05-11T04:30:56.187Z,2.67
2023-05-11T04:33:27.345Z,3.00
2023-05-11T04:36:00.178Z,2.72
2023-05-11T04:38:31.394Z,2.83
2023-05-11T04:41:05.861Z,3.03
2023-05-11T04:43:36.722Z,2.97
2023-05-11T04:46:07.579Z,2.78
2023-05-11T04:48:38.177Z,2.72
2023-05-11T04:51:11.311Z,2.70
2023-05-11T04:53:42.458Z,3.30
2023-05-11T04:56:13.142Z,3.28
2023-05-11T04:58:44.450Z,2.92
2023-05-11T05:01:15.032Z,2.92
2023-05-11T05:03:45.653Z,3.00
2023-05-11T05:06:18.186Z,2.75
2023-05-11T05:08:48.731Z,2.70
2023-05-11T05:11:18.870Z,3.05
2023-05-11T05:13:48.949Z,3.13
2023-05-11T05:16:18.839Z,2.75
2023-05-11T05:18:49.459Z,3.00
2023-05-11T05:21:21.367Z,2.85
2023-05-11T05:23:51.347Z,3.30
2023-05-11T05:26:22.167Z,2.95
2023-05-11T05:28:52.675Z,2.97
2023-05-11T05:31:23.276Z,2.83
2023-05-11T05:33:53.465Z,3.42
2023-05-11T05:36:25.989Z,3.30
2023-05-11T05:38:56.605Z,3.20
2023-05-11T05:41:27.431Z,3.15
2023-05-11T05:43:57.521Z,3.03
2023-05-11T05:46:28.145Z,3.45
2023-05-11T05:48:58.556Z,3.00
2023-05-11T05:51:31.066Z,3.05
2023-05-11T05:54:01.730Z,3.13
2023-05-11T05:56:32.500Z,3.47
2023-05-11T05:59:02.943Z,3.25
2023-05-11T06:01:33.794Z,3.28
2023-05-11T06:04:04.732Z,3.67
2023-05-11T06:06:37.434Z,3.50
2023-05-11T06:09:08.377Z,4.10
2023-05-11T06:11:39.261Z,3.97
2023-05-11T06:14:09.761Z,3.13
2023-05-11T06:16:40.460Z,3.47
2023-05-11T06:19:12.004Z,3.42
2023-05-11T06:21:46.432Z,3.78
2023-05-11T06:24:16.920Z,3.42
2023-05-11T06:26:47.406Z,3.65
2023-05-11T06:29:18.077Z,3.70
2023-05-11T06:31:50.327Z,3.58
2023-05-11T06:34:20.895Z,4.07
2023-05-11T06:36:53.420Z,3.25
2023-05-11T06:39:23.854Z,2.97
2023-05-11T06:41:57.052Z,3.17
2023-05-11T06:44:29.203Z,3.17
2023-05-11T06:47:01.563Z,3.35
2023-05-11T06:49:32.058Z,3.13
2023-05-11T06:52:04.279Z,3.38
2023-05-11T06:54:34.866Z,3.70
2023-05-11T06:57:05.834Z,3.53
2023-05-11T06:59:36.330Z,3.08
2023-05-11T07:02:06.388Z,3.33
2023-05-11T07:04:36.621Z,3.28
2023-05-11T07:07:11.796Z,2.95
2023-05-11T07:09:42.961Z,3.47
2023-05-11T07:12:13.839Z,3.47
2023-05-11T07:14:43.757Z,3.15
2023-05-11T07:17:13.901Z,3.05
2023-05-11T07:19:44.383Z,2.85
2023-05-11T07:22:17.049Z,2.78
2023-05-11T07:24:47.204Z,3.13
2023-05-11T07:27:17.818Z,3.15
2023-05-11T07:29:48.274Z,3.38
2023-05-11T07:32:18.729Z,2.90
2023-05-11T07:34:49.226Z,3.28
2023-05-11T07:37:20.842Z,3.10
2023-05-11T07:39:51.398Z,2.88
2023-05-11T07:42:21.485Z,3.00
2023-05-11T07:44:51.996Z,2.78
2023-05-11T07:47:23.775Z,2.90
2023-05-11T07:49:54.218Z,3.00
2023-05-11T07:52:27.710Z,2.95
2023-05-11T07:54:58.292Z,2.67
2023-05-11T07:57:28.883Z,2.63
2023-05-11T07:59:58.770Z,2.60
2023-05-11T08:02:29.705Z,2.58
2023-05-11T08:05:00.326Z,2.80
2023-05-11T08:07:33.004Z,2.80
2023-05-11T08:10:03.513Z,3.13
2023-05-11T08:12:33.930Z,3.10
2023-05-11T08:15:04.962Z,3.00
2023-05-11T08:17:35.622Z,2.90
2023-05-11T08:20:07.027Z,2.63
2023-05-11T08:22:39.618Z,2.53
2023-05-11T08:25:11.343Z,2.40
2023-05-11T08:27:41.980Z,2.45
2023-05-11T08:30:14.237Z,2.45
2023-05-11T08:35:18.127Z,2.60
2023-05-11T08:37:50.933Z,2.40
2023-05-11T08:40:22.794Z,2.40
2023-05-11T08:42:57.929Z,2.10
2023-05-11T08:45:29.780Z,1.98
2023-05-11T08:48:01.990Z,1.85
2023-05-11T08:50:32.272Z,1.85
2023-05-11T08:53:05.661Z,1.83
2023-05-11T08:55:39.108Z,1.85
2023-05-11T08:58:10.361Z,2.00
2023-05-11T09:00:41.158Z,1.98
2023-05-11T09:03:13.193Z,1.63
2023-05-11T09:05:45.697Z,1.90
2023-05-11T09:08:20.204Z,1.70
2023-05-11T09:10:52.476Z,1.73
2023-05-11T09:13:24.918Z,1.80
2023-05-11T09:15:55.126Z,1.63
2023-05-11T09:18:25.294Z,1.58
2023-05-11T09:20:56.224Z,1.85
2023-05-11T09:23:30.363Z,1.80
2023-05-11T09:26:00.322Z,1.95
2023-05-11T09:28:35.929Z,1.70
2023-05-11T09:31:07.165Z,1.95
2023-05-11T09:33:37.657Z,1.80
2023-05-11T09:36:09.673Z,1.67
2023-05-11T09:38:42.269Z,2.03
2023-05-11T09:41:12.838Z,1.75
2023-05-11T09:43:43.721Z,1.90
2023-05-11T09:46:24.459Z,1.88
2023-05-11T09:49:02.819Z,1.75
2023-05-11T09:51:35.128Z,1.80
2023-05-11T09:54:22.165Z,1.95
2023-05-11T09:56:58.727Z,1.80
2023-05-11T09:59:43.337Z,1.80
2023-05-11T10:02:25.360Z,2.00
2023-05-11T10:04:58.428Z,1.73
2023-05-11T10:07:34.593Z,2.03
2023-05-11T10:10:09.750Z,1.88
2023-05-11T10:12:40.816Z,1.60
2023-05-11T10:15:13.855Z,1.90
2023-05-11T10:17:46.882Z,1.50
2023-05-11T10:20:20.536Z,1.80
2023-05-11T10:22:55.704Z,1.90
2023-05-11T10:25:29.026Z,1.90
2023-05-11T10:28:00.868Z,1.98
2023-05-11T10:30:32.680Z,1.95
2023-05-11T10:33:04.659Z,1.80
2023-05-11T10:35:36.083Z,1.98
2023-05-11T10:38:07.100Z,2.05
2023-05-11T10:40:45.528Z,2.00
2023-05-11T10:43:57.046Z,2.00
2023-05-11T10:46:59.596Z,2.20
2023-05-11T10:50:07.666Z,2.30
2023-05-11T10:53:05.210Z,2.38
2023-05-11T10:56:06.552Z,2.13
2023-05-11T10:59:02.779Z,2.30
2023-05-11T11:01:41.499Z,2.30
2023-05-11T11:04:14.101Z,2.42
2023-05-11T11:06:46.674Z,2.58
2023-05-11T11:09:19.017Z,2.33
2023-05-11T11:11:51.543Z,2.40
2023-05-11T11:14:22.389Z,2.60
2023-05-11T11:17:35.888Z,2.60
2023-05-11T11:20:08.945Z,2.20
2023-05-11T11:22:51.596Z,2.28
2023-05-11T11:26:03.549Z,2.13
2023-05-11T11:29:15.433Z,2.28
2023-05-11T11:31:47.397Z,2.35
2023-05-11T11:34:39.862Z,2.25
2023-05-11T11:37:15.023Z,2.40
2023-05-11T11:40:15.225Z,2.65
2023-05-11T11:42:48.029Z,2.50
2023-05-11T11:45:40.325Z,2.53
2023-05-11T11:48:36.072Z,2.30
2023-05-11T11:51:11.078Z,2.35
2023-05-11T11:54:02.040Z,2.63
2023-05-11T11:56:46.707Z,2.40
2023-05-11T11:59:20.461Z,2.58
2023-05-11T12:01:57.577Z,2.45
2023-05-11T12:05:00.276Z,2.42
2023-05-11T12:07:36.956Z,2.40
2023-05-11T12:10:09.123Z,2.53
2023-05-11T12:12:41.936Z,2.15
2023-05-11T12:15:28.075Z,2.63
2023-05-11T12:18:03.006Z,2.33
2023-05-11T12:20:33.963Z,2.50
2023-05-11T12:23:04.835Z,2.47
2023-05-11T12:25:35.593Z,1.92
2023-05-11T12:28:07.053Z,1.98
2023-05-11T12:30:38.584Z,1.73
2023-05-11T12:33:11.480Z,1.80
2023-05-11T12:35:42.223Z,2.00
2023-05-11T12:38:14.078Z,1.80
2023-05-11T12:40:51.493Z,1.80
2023-05-11T12:43:23.228Z,1.75
2023-05-11T12:45:54.105Z,1.70
2023-05-11T12:48:26.320Z,1.85
2023-05-11T12:50:57.253Z,1.77
2023-05-11T12:53:27.829Z,1.50
2023-05-11T12:56:02.007Z,1.70
2023-05-11T12:58:40.381Z,1.80
2023-05-11T13:01:11.910Z,1.40
2023-05-11T13:03:50.004Z,1.50
2023-05-11T13:06:23.177Z,1.40
2023-05-11T13:08:54.245Z,1.50
2023-05-11T13:11:27.324Z,1.45
2023-05-11T13:13:59.437Z,1.40
2023-05-11T13:16:31.447Z,1.33
2023-05-11T13:19:07.104Z,1.23
2023-05-11T13:21:37.891Z,1.38
2023-05-11T13:24:08.864Z,1.40
2023-05-11T13:26:39.329Z,1.20
2023-05-11T13:29:11.131Z,1.20
2023-05-11T13:31:53.196Z,1.10
2023-05-11T13:34:41.417Z,1.00
2023-05-11T13:37:11.884Z,1.05
2023-05-11T13:39:42.488Z,1.20
2023-05-11T13:42:13.510Z,1.15
2023-05-11T13:44:44.172Z,1.10
2023-05-11T13:47:15.035Z,1.33
2023-05-11T13:49:48.154Z,1.40
2023-05-11T13:52:20.825Z,1.50
2023-05-11T13:54:52.516Z,1.23
2023-05-11T13:57:24.746Z,1.10
2023-05-11T13:59:56.229Z,1.08
2023-05-11T14:02:28.338Z,1.15
2023-05-11T14:05:00.624Z,1.10
2023-05-11T14:07:42.867Z,1.08
2023-05-11T14:10:16.700Z,1.02
2023-05-11T14:12:47.465Z,1.15
2023-05-11T14:15:18.327Z,1.25
2023-05-11T14:17:49.182Z,1.02
2023-05-11T14:20:21.510Z,1.10
2023-05-11T14:22:52.218Z,1.15
2023-05-11T14:25:23.068Z,1.00
2023-05-11T14:27:56.275Z,1.00
2023-05-11T14:30:27.649Z,0.95
2023-05-11T14:33:00.952Z,0.95
2023-05-11T14:35:33.710Z,1.20
2023-05-11T14:38:05.275Z,0.93
2023-05-11T14:40:36.132Z,1.05
2023-05-11T14:43:07.151Z,0.90
2023-05-11T14:45:39.799Z,0.88
2023-05-11T14:48:10.823Z,0.80
2023-05-11T14:50:45.807Z,0.93
2023-05-11T14:53:18.198Z,0.90
2023-05-11T14:55:50.565Z,0.80
2023-05-11T14:58:25.473Z,1.10
2023-05-11T15:01:00.226Z,0.98
2023-05-11T15:03:31.315Z,1.00
2023-05-11T15:06:09.159Z,0.70
2023-05-11T15:08:53.062Z,0.90
2023-05-11T15:11:26.628Z,0.80
2023-05-11T15:13:57.466Z,1.00
2023-05-11T15:16:29.028Z,0.80
2023-05-11T15:19:04.102Z,0.70
2023-05-11T15:21:38.320Z,1.00
2023-05-11T15:24:11.853Z,0.50
2023-05-11T15:26:43.549Z,0.88
2023-05-11T15:29:14.580Z,1.10
2023-05-11T15:31:47.758Z,0.77
2023-05-11T15:34:18.421Z,1.00
2023-05-11T15:36:52.856Z,1.08
2023-05-11T15:39:25.198Z,1.10
2023-05-11T15:41:57.837Z,1.02
2023-05-11T15:44:32.045Z,0.93
2023-05-11T15:47:07.889Z,0.65
2023-05-11T15:49:49.110Z,0.80
2023-05-11T15:52:43.371Z,0.98
2023-05-11T15:55:42.669Z,0.77
2023-05-11T15:58:18.784Z,1.00
2023-05-11T16:01:02.166Z,0.90
2023-05-11T16:03:52.939Z,0.60
2023-05-11T16:06:32.264Z,0.80
2023-05-11T16:09:16.680Z,1.00
2023-05-11T16:11:59.213Z,0.80
2023-05-11T16:14:51.087Z,0.90
2023-05-11T16:17:32.329Z,0.98
2023-05-11T16:20:16.637Z,0.70
2023-05-11T16:22:54.294Z,0.77
2023-05-11T16:25:37.219Z,1.00
2023-05-11T16:28:15.609Z,0.85
2023-05-11T16:31:05.176Z,1.20
2023-05-11T16:33:47.308Z,1.88
2023-05-11T16:36:29.423Z,2.05
2023-05-11T16:39:06.360Z,1.98
2023-05-11T16:41:48.850Z,1.90
2023-05-11T16:44:28.039Z,1.98
2023-05-11T16:47:09.157Z,1.90
2023-05-11T16:49:48.054Z,2.03
2023-05-11T16:52:27.856Z,1.75
2023-05-11T16:55:05.587Z,1.88
2023-05-11T16:57:51.603Z,1.73
2023-05-11T17:00:34.204Z,1.50
2023-05-11T17:03:26.436Z,1.50
2023-05-11T17:06:04.174Z,1.60
2023-05-11T17:08:50.579Z,1.70
2023-05-11T17:11:30.816Z,1.60
2023-05-11T17:14:14.193Z,1.45
2023-05-11T17:16:50.438Z,1.48
2023-05-11T17:19:31.705Z,1.50
2023-05-11T17:22:10.783Z,1.52
2023-05-11T17:24:47.123Z,1.50
2023-05-11T17:27:24.648Z,1.70
2023-05-11T17:30:02.262Z,1.55
2023-05-11T17:32:45.380Z,1.48
2023-05-11T17:35:31.709Z,1.50
2023-05-11T17:38:11.665Z,1.63
2023-05-11T17:40:46.109Z,1.55
2023-05-11T17:43:24.171Z,1.80
2023-05-11T17:46:05.122Z,1.50
2023-05-11T17:48:53.789Z,1.35
2023-05-11T17:51:30.401Z,1.60
2023-05-11T17:54:15.169Z,1.52
2023-05-11T17:56:49.226Z,1.60
2023-05-11T17:59:30.060Z,1.45
2023-05-11T18:02:09.181Z,1.60
2023-05-11T18:04:42.695Z,1.60
2023-05-11T18:07:20.101Z,1.60
2023-05-11T18:09:53.383Z,1.35
2023-05-11T18:12:34.048Z,1.45
2023-05-11T18:15:08.988Z,1.40
2023-05-11T18:17:57.092Z,1.40
2023-05-11T18:20:37.512Z,1.35
2023-05-11T18:23:13.612Z,1.33
2023-05-11T18:25:49.013Z,1.35
2023-05-11T18:28:28.185Z,1.35
2023-05-11T18:31:08.576Z,1.40
2023-05-11T18:33:51.465Z,1.70
2023-05-11T18:36:35.579Z,1.42
2023-05-11T18:39:23.714Z,1.50
2023-05-11T18:42:06.515Z,1.30
2023-05-11T18:44:45.080Z,1.40
2023-05-11T18:47:20.579Z,1.48
2023-05-11T18:50:02.142Z,1.50
2023-05-11T18:52:40.940Z,1.52
2023-05-11T18:55:51.743Z,1.40
2023-05-11T18:58:32.996Z,1.25
2023-05-11T19:01:15.066Z,1.42
2023-05-11T19:03:56.305Z,1.70
2023-05-11T19:06:39.630Z,1.20
2023-05-11T19:09:16.616Z,1.50
2023-05-11T19:11:51.386Z,1.60
2023-05-11T19:14:35.913Z,1.60
2023-05-11T19:17:09.734Z,1.70
2023-05-11T19:19:42.170Z,1.80
2023-05-11T19:22:21.703Z,1.60
2023-05-11T19:25:07.515Z,1.95
2023-05-11T19:27:45.733Z,1.90
2023-05-11T19:30:22.975Z,1.70
2023-05-11T19:32:58.065Z,1.63
2023-05-11T19:35:43.066Z,1.98
2023-05-11T19:38:18.816Z,2.08
2023-05-11T19:40:54.309Z,2.00
2023-05-11T19:43:31.892Z,2.05
2023-05-11T19:46:10.448Z,2.08
2023-05-11T19:48:47.906Z,2.05
2023-05-11T19:51:24.555Z,1.95
2023-05-11T19:54:03.791Z,2.05
2023-05-11T19:56:40.652Z,2.20
2023-05-11T19:59:16.657Z,2.25
2023-05-11T20:01:51.192Z,2.00
2023-05-11T20:04:23.773Z,1.85
2023-05-11T20:06:55.647Z,2.00
2023-05-11T20:09:39.697Z,2.15
2023-05-11T20:12:23.045Z,2.42
2023-05-11T20:14:58.854Z,2.00
2023-05-11T20:17:45.396Z,2.20
2023-05-11T20:20:28.764Z,2.15
2023-05-11T20:23:03.973Z,2.10
2023-05-11T20:25:45.781Z,2.30
2023-05-11T20:28:22.119Z,2.10
2023-05-11T20:31:00.483Z,2.20
2023-05-11T20:36:22.827Z,2.03
2023-05-11T20:38:57.978Z,2.15
2023-05-11T20:41:32.660Z,2.17
2023-05-11T20:44:10.619Z,2.40
2023-05-11T20:46:51.140Z,2.13
2023-05-11T20:49:37.580Z,2.17
2023-05-11T20:52:14.213Z,1.95
2023-05-11T20:54:48.209Z,2.15
2023-05-11T20:57:27.438Z,1.98
2023-05-11T21:00:06.961Z,1.98
2023-05-11T21:02:45.950Z,2.10
2023-05-11T21:05:25.423Z,2.28
2023-05-11T21:07:57.629Z,2.47
2023-05-11T21:10:31.730Z,2.08
2023-05-11T21:13:08.274Z,1.88
2023-05-11T21:15:44.351Z,1.90
2023-05-11T21:18:16.715Z,2.00
2023-05-11T21:20:56.919Z,1.92
2023-05-11T21:23:30.680Z,2.13
2023-05-11T21:26:06.546Z,1.80
2023-05-11T21:28:42.516Z,2.10
2023-05-11T21:31:15.497Z,2.17
2023-05-11T21:33:58.213Z,2.20
2023-05-11T21:36:28.912Z,2.10
2023-05-11T21:39:02.001Z,2.00
2023-05-11T21:41:35.130Z,2.20
2023-05-11T21:44:11.093Z,2.05
2023-05-11T21:46:43.667Z,2.13
2023-05-11T21:49:20.688Z,2.10
2023-05-11T21:51:53.299Z,2.30
2023-05-11T21:54:31.734Z,2.22
2023-05-11T21:57:06.365Z,2.13
2023-05-11T21:59:42.132Z,2.00
2023-05-11T22:02:13.648Z,2.25
2023-05-11T22:04:45.896Z,2.05
2023-05-11T22:07:16.759Z,2.35
2023-05-11T22:09:51.541Z,2.10
2023-05-11T22:12:22.949Z,2.22
2023-05-11T22:14:58.990Z,1.95
2023-05-11T22:17:29.997Z,2.00
2023-05-11T22:20:00.989Z,1.90
2023-05-11T22:22:31.238Z,1.95
2023-05-11T22:25:01.891Z,1.90
2023-05-11T22:27:33.019Z,2.00
2023-05-11T22:30:05.553Z,1.70
2023-05-11T22:32:36.561Z,1.80
2023-05-11T22:35:08.010Z,1.77
2023-05-11T22:37:38.588Z,1.48
2023-05-11T22:40:10.886Z,1.50
2023-05-11T22:42:42.167Z,1.52
2023-05-11T22:45:15.653Z,1.58
2023-05-11T22:47:46.311Z,1.60
2023-05-11T22:50:16.511Z,1.42
2023-05-11T22:52:47.789Z,1.65
2023-05-11T22:55:18.434Z,1.80
2023-05-11T22:57:48.443Z,1.90
2023-05-11T23:00:21.956Z,1.63
2023-05-11T23:02:52.345Z,1.58
2023-05-11T23:05:22.993Z,1.80
2023-05-11T23:07:53.320Z,1.65
2023-05-11T23:10:23.836Z,2.10
2023-05-11T23:12:54.438Z,1.83
2023-05-11T23:15:27.462Z,1.88
2023-05-11T23:17:57.942Z,1.70
2023-05-11T23:20:28.641Z,1.60
2023-05-11T23:23:00.131Z,1.73
2023-05-11T23:25:31.654Z,1.60
2023-05-11T23:28:01.772Z,1.60
2023-05-11T23:30:34.221Z,1.90
2023-05-11T23:33:04.338Z,1.50
2023-05-11T23:35:35.554Z,1.67
2023-05-11T23:38:06.051Z,1.60
2023-05-11T23:40:37.097Z,1.48
2023-05-11T23:43:07.809Z,1.40
2023-05-11T23:45:40.560Z,1.80
2023-05-11T23:48:10.670Z,1.50
2023-05-11T23:50:41.186Z,1.60
2023-05-11T23:53:11.969Z,1.92
2023-05-11T23:55:41.849Z,1.65
2023-05-11T23:58:12.322Z,1.70
